| time (UTC) | temp C | wind direction | speed KPH | gust KPH | rain 1hr cm | rain 24hr cm | rain mn cm | humidity % | barometer mb |
| 20260506025503 | 20 | 323 | 11.3 | 19.3 | 0.00 | 0.00 | 0.00 | 45 | 1014.8 |
| 20260506025003 | 20 | 324 | 11.3 | 20.9 | 0.00 | 0.00 | 0.00 | 45 | 1014.8 |
| 20260506024503 | 21 | 332 | 11.3 | 20.9 | 0.00 | 0.00 | 0.00 | 44 | 1014.7 |
| 20260506024217 | 21 | 332 | 12.9 | 24.1 | 0.00 | 0.00 | 0.00 | 44 | 1014.6 |
| 20260506023503 | 21 | 334 | 12.9 | 24.1 | 0.00 | 0.00 | 0.00 | 43 | 1014.5 |
| 20260506023003 | 21 | 332 | 12.9 | 24.1 | 0.00 | 0.00 | 0.00 | 43 | 1014.5 |
| 20260506022503 | 21 | 327 | 11.3 | 24.1 | 0.00 | 0.00 | 0.00 | 42 | 1014.4 |
| 20260506022003 | 21 | 328 | 11.3 | 25.7 | 0.00 | 0.00 | 0.00 | 42 | 1014.3 |
| 20260506021718 | 21 | 328 | 11.3 | 25.7 | 0.00 | 0.00 | 0.00 | 42 | 1014.3 |
| 20260506021003 | 22 | 328 | 12.9 | 24.1 | 0.00 | 0.00 | 0.00 | 41 | 1014.2 |
| 20260506020503 | 22 | 326 | 12.9 | 25.7 | 0.00 | 0.00 | 0.00 | 40 | 1014.1 |
| 20260506020003 | 22 | 320 | 12.9 | 25.7 | 0.00 | 0.00 | 0.00 | 39 | 1014.1 |
| 20260506015503 | 22 | 318 | 12.9 | 24.1 | 0.00 | 0.00 | 0.00 | 39 | 1014.0 |
| 20260506015004 | 23 | 318 | 12.9 | 25.7 | 0.00 | 0.00 | 0.00 | 39 | 1014.0 |
| 20260506014503 | 23 | 319 | 14.5 | 25.7 | 0.00 | 0.00 | 0.00 | 38 | 1014.0 |
| 20260506014217 | 23 | 325 | 14.5 | 27.4 | 0.00 | 0.00 | 0.00 | 38 | 1014.0 |
| 20260506013503 | 23 | 332 | 14.5 | 27.4 | 0.00 | 0.00 | 0.00 | 38 | 1014.0 |
| 20260506013219 | 23 | 329 | 12.9 | 24.1 | 0.00 | 0.00 | 0.00 | 37 | 1014.0 |
| 20260506012503 | 23 | 332 | 9.7 | 20.9 | 0.00 | 0.00 | 0.00 | 36 | 1013.8 |
| 20260506012217 | 23 | 333 | 9.7 | 20.9 | 0.00 | 0.00 | 0.00 | 34 | 1013.8 |
| 20260506011504 | 23 | 337 | 11.3 | 20.9 | 0.00 | 0.00 | 0.00 | 34 | 1013.8 |
| 20260506011004 | 23 | 342 | 11.3 | 20.9 | 0.00 | 0.00 | 0.00 | 35 | 1013.8 |
| 20260506010503 | 22 | 346 | 9.7 | 20.9 | 0.00 | 0.00 | 0.00 | 36 | 1013.8 |
| 20260506010004 | 22 | 332 | 8.0 | 17.7 | 0.00 | 0.00 | 0.00 | 34 | 1013.8 |
| 20260506005503 | 22 | 311 | 8.0 | 17.7 | 0.00 | 0.00 | 0.00 | 36 | 1013.8 |
| 20260506005003 | 23 | 301 | 8.0 | 17.7 | 0.00 | 0.00 | 0.00 | 33 | 1013.8 |
| 20260506004503 | 23 | 314 | 8.0 | 16.1 | 0.00 | 0.00 | 0.00 | 32 | 1013.8 |
| 20260506004003 | 23 | 323 | 9.7 | 17.7 | 0.00 | 0.00 | 0.00 | 31 | 1013.7 |
| 20260506003717 | 23 | 321 | 9.7 | 17.7 | 0.00 | 0.00 | 0.00 | 31 | 1013.7 |
| 20260506003003 | 23 | 316 | 9.7 | 17.7 | 0.00 | 0.00 | 0.00 | 31 | 1013.7 |
| 20260506002719 | 23 | 314 | 8.0 | 16.1 | 0.00 | 0.00 | 0.00 | 31 | 1013.7 |
| 20260506002003 | 23 | 326 | 6.4 | 14.5 | 0.00 | 0.00 | 0.00 | 29 | 1013.5 |
| 20260506001503 | 24 | 348 | 8.0 | 19.3 | 0.00 | 0.00 | 0.00 | 29 | 1013.6 |
| 20260506001004 | 24 | 338 | 11.3 | 24.1 | 0.00 | 0.00 | 0.00 | 28 | 1013.6 |
| 20260506000503 | 24 | 341 | 9.7 | 24.1 | 0.00 | 0.00 | 0.00 | 28 | 1013.5 |
| 20260506000003 | 24 | 347 | 8.0 | 17.7 | 0.00 | 0.00 | 0.00 | 28 | 1013.5 |
| 20260505235503 | 24 | 337 | 9.7 | 19.3 | 0.00 | 0.00 | 0.00 | 28 | 1013.5 |
| 20260505235004 | 23 | 339 | 11.3 | 22.5 | 0.00 | 0.00 | 0.00 | 28 | 1013.6 |
| 20260505234503 | 23 | 332 | 12.9 | 22.5 | 0.00 | 0.00 | 0.00 | 28 | 1013.5 |
| 20260505234003 | 23 | 313 | 12.9 | 22.5 | 0.00 | 0.00 | 0.00 | 29 | 1013.5 |
| 20260505233503 | 24 | 303 | 12.9 | 22.5 | 0.00 | 0.00 | 0.00 | 30 | 1013.5 |
| 20260505233003 | 24 | 306 | 14.5 | 22.5 | 0.00 | 0.00 | 0.00 | 29 | 1013.5 |
| 20260505232719 | 24 | 306 | 14.5 | 22.5 | 0.00 | 0.00 | 0.00 | 29 | 1013.5 |
| 20260505232003 | 25 | 322 | 11.3 | 24.1 | 0.00 | 0.00 | 0.00 | 29 | 1013.6 |
| 20260505231504 | 25 | 331 | 9.7 | 24.1 | 0.00 | 0.00 | 0.00 | 29 | 1013.7 |
| 20260505231003 | 25 | 3 | 9.7 | 27.4 | 0.00 | 0.00 | 0.00 | 26 | 1013.5 |
| 20260505230503 | 25 | 11 | 11.3 | 27.4 | 0.00 | 0.00 | 0.00 | 26 | 1013.6 |
| 20260505230216 | 25 | 12 | 11.3 | 27.4 | 0.00 | 0.00 | 0.00 | 26 | 1013.6 |
| 20260505225503 | 25 | 34 | 11.3 | 19.3 | 0.00 | 0.00 | 0.00 | 27 | 1013.7 |
| 20260505225004 | 25 | 39 | 12.9 | 24.1 | 0.00 | 0.00 | 0.00 | 27 | 1013.6 |
| 20260505224503 | 26 | 16 | 12.9 | 24.1 | 0.00 | 0.00 | 0.00 | 25 | 1013.6 |
| 20260505224215 | 26 | 356 | 11.3 | 24.1 | 0.00 | 0.00 | 0.00 | 25 | 1013.6 |
| 20260505223503 | 25 | 16 | 9.7 | 19.3 | 0.00 | 0.00 | 0.00 | 25 | 1013.6 |
| 20260505223003 | 25 | 5 | 8.0 | 19.3 | 0.00 | 0.00 | 0.00 | 26 | 1013.6 |
| 20260505222503 | 25 | 4 | 11.3 | 20.9 | 0.00 | 0.00 | 0.00 | 28 | 1013.7 |
| 20260505222003 | 25 | 26 | 11.3 | 20.9 | 0.00 | 0.00 | 0.00 | 26 | 1013.7 |
| 20260505221503 | 25 | 40 | 11.3 | 19.3 | 0.00 | 0.00 | 0.00 | 29 | 1013.8 |
| 20260505221003 | 24 | 34 | 9.7 | 19.3 | 0.00 | 0.00 | 0.00 | 28 | 1013.8 |
| 20260505220718 | 24 | 29 | 11.3 | 19.3 | 0.00 | 0.00 | 0.00 | 30 | 1013.9 |
| 20260505220003 | 23 | 26 | 12.9 | 25.7 | 0.00 | 0.00 | 0.00 | 30 | 1013.8 |
| 20260505215503 | 23 | 29 | 14.5 | 25.7 | 0.00 | 0.00 | 0.00 | 29 | 1013.9 |
| 20260505215217 | 23 | 27 | 14.5 | 25.7 | 0.00 | 0.00 | 0.00 | 32 | 1013.9 |
| 20260505214718 | 23 | 33 | 11.3 | 25.7 | 0.00 | 0.00 | 0.00 | 29 | 1013.9 |
| 20260505214003 | 23 | 37 | 4.8 | 14.5 | 0.00 | 0.00 | 0.00 | 29 | 1014.0 |
| 20260505213503 | 23 | 349 | 4.8 | 14.5 | 0.00 | 0.00 | 0.00 | 28 | 1013.9 |
| 20260505213004 | 23 | 32 | 8.0 | 37.0 | 0.00 | 0.00 | 0.00 | 30 | 1014.0 |
| 20260505212503 | 23 | 20 | 9.7 | 37.0 | 0.00 | 0.00 | 0.00 | 31 | 1014.0 |
| 20260505212003 | 23 | 329 | 8.0 | 19.3 | 0.00 | 0.00 | 0.00 | 29 | 1014.1 |
| 20260505211503 | 23 | 346 | 8.0 | 19.3 | 0.00 | 0.00 | 0.00 | 32 | 1014.0 |
| 20260505211004 | 23 | 32 | 11.3 | 35.4 | 0.00 | 0.00 | 0.00 | 28 | 1014.1 |
| 20260505210718 | 23 | 26 | 11.3 | 35.4 | 0.00 | 0.00 | 0.00 | 30 | 1014.1 |
| 20260505210219 | 24 | 35 | 8.0 | 35.4 | 0.00 | 0.00 | 0.00 | 30 | 1013.6 |
| 20260505205503 | 25 | 126 | 4.8 | 16.1 | 0.00 | 0.00 | 0.00 | 29 | 1014.0 |
| 20260505205003 | 25 | 85 | 4.8 | 11.3 | 0.00 | 0.00 | 0.00 | 27 | 1014.1 |
| 20260505204718 | 24 | 75 | 4.8 | 16.1 | 0.00 | 0.00 | 0.00 | 28 | 1014.2 |
| 20260505204003 | 23 | 57 | 11.3 | 20.9 | 0.00 | 0.00 | 0.00 | 31 | 1014.1 |
| 20260505203503 | 23 | 55 | 6.4 | 20.9 | 0.00 | 0.00 | 0.00 | 31 | 1014.1 |
| 20260505203004 | 23 | 338 | 3.2 | 6.4 | 0.00 | 0.00 | 0.00 | 31 | 1014.2 |
| 20260505202718 | 23 | 335 | 3.2 | 6.4 | 0.00 | 0.00 | 0.00 | 32 | 1014.2 |
| 20260505202003 | 23 | 306 | 3.2 | 9.7 | 0.00 | 0.00 | 0.00 | 32 | 1014.2 |
| 20260505201503 | 23 | 321 | 4.8 | 12.9 | 0.00 | 0.00 | 0.00 | 34 | 1014.3 |
| 20260505201004 | 23 | 300 | 6.4 | 14.5 | 0.00 | 0.00 | 0.00 | 34 | 1014.4 |
| 20260505200503 | 23 | 293 | 6.4 | 14.5 | 0.00 | 0.00 | 0.00 | 34 | 1014.4 |
| 20260505200003 | 23 | 322 | 8.0 | 19.3 | 0.00 | 0.00 | 0.00 | 33 | 1014.3 |
| 20260505195719 | 23 | 328 | 8.0 | 19.3 | 0.00 | 0.00 | 0.00 | 35 | 1014.4 |
| 20260505195003 | 23 | 312 | 4.8 | 17.7 | 0.00 | 0.00 | 0.00 | 36 | 1014.4 |
| 20260505194503 | 22 | 309 | 1.6 | 9.7 | 0.00 | 0.00 | 0.00 | 36 | 1014.5 |
| 20260505194003 | 22 | 293 | 3.2 | 12.9 | 0.00 | 0.00 | 0.00 | 36 | 1014.5 |
| 20260505193504 | 22 | 312 | 4.8 | 14.5 | 0.00 | 0.00 | 0.00 | 36 | 1014.6 |
| 20260505193003 | 22 | 31 | 4.8 | 14.5 | 0.00 | 0.00 | 0.00 | 36 | 1014.6 |
| 20260505192503 | 22 | 111 | 4.8 | 14.5 | 0.00 | 0.00 | 0.00 | 37 | 1014.5 |
| 20260505192003 | 22 | 78 | 6.4 | 14.5 | 0.00 | 0.00 | 0.00 | 37 | 1014.5 |
| 20260505191503 | 22 | 305 | 4.8 | 14.5 | 0.00 | 0.00 | 0.00 | 36 | 1014.6 |
| 20260505191003 | 22 | 293 | 4.8 | 17.7 | 0.00 | 0.00 | 0.00 | 39 | 1014.5 |
| 20260505190503 | 21 | 281 | 6.4 | 17.7 | 0.00 | 0.00 | 0.00 | 40 | 1014.6 |
| 20260505190004 | 21 | 240 | 4.8 | 12.9 | 0.00 | 0.00 | 0.00 | 40 | 1014.6 |
| 20260505185503 | 21 | 256 | 6.4 | 12.9 | 0.00 | 0.00 | 0.00 | 40 | 1014.6 |
| 20260505185003 | 21 | 290 | 6.4 | 12.9 | 0.00 | 0.00 | 0.00 | 40 | 1014.7 |
| 20260505184503 | 20 | 255 | 6.4 | 12.9 | 0.00 | 0.00 | 0.00 | 45 | 1014.7 |
| 20260505184003 | 20 | 235 | 6.4 | 12.9 | 0.00 | 0.00 | 0.00 | 46 | 1014.7 |
| 20260505183503 | 20 | 244 | 6.4 | 11.3 | 0.00 | 0.00 | 0.00 | 49 | 1014.7 |
| 20260505183003 | 20 | 243 | 6.4 | 12.9 | 0.00 | 0.00 | 0.00 | 48 | 1014.9 |
| 20260505182717 | 19 | 240 | 6.4 | 12.9 | 0.00 | 0.00 | 0.00 | 48 | 1014.9 |
| 20260505182003 | 18 | 252 | 4.8 | 12.9 | 0.00 | 0.00 | 0.00 | 51 | 1014.9 |
| 20260505181503 | 18 | 266 | 6.4 | 12.9 | 0.00 | 0.00 | 0.00 | 50 | 1014.9 |
| 20260505181003 | 18 | 270 | 6.4 | 14.5 | 0.00 | 0.00 | 0.00 | 50 | 1014.9 |
| 20260505180503 | 18 | 271 | 4.8 | 14.5 | 0.00 | 0.00 | 0.00 | 51 | 1015.0 |
| 20260505180003 | 18 | 262 | 4.8 | 12.9 | 0.00 | 0.00 | 0.00 | 53 | 1015.0 |
| 20260505175504 | 17 | 272 | 4.8 | 12.9 | 0.00 | 0.00 | 0.00 | 52 | 1015.0 |
| 20260505175216 | 17 | 294 | 4.8 | 11.3 | 0.00 | 0.00 | 0.00 | 53 | 1015.0 |
| 20260505174503 | 17 | 283 | 4.8 | 12.9 | 0.00 | 0.00 | 0.00 | 54 | 1014.9 |
| 20260505174003 | 17 | 281 | 3.2 | 12.9 | 0.00 | 0.00 | 0.00 | 58 | 1015.0 |
| 20260505173504 | 17 | 297 | 4.8 | 14.5 | 0.00 | 0.00 | 0.00 | 56 | 1014.9 |
| 20260505173003 | 16 | 285 | 4.8 | 14.5 | 0.00 | 0.00 | 0.00 | 58 | 1015.0 |
| 20260505172504 | 16 | 282 | 4.8 | 11.3 | 0.00 | 0.00 | 0.00 | 57 | 1014.9 |
| 20260505172218 | 16 | 291 | 4.8 | 12.9 | 0.00 | 0.00 | 0.00 | 58 | 1015.0 |
| 20260505171503 | 16 | 299 | 4.8 | 12.9 | 0.00 | 0.00 | 0.00 | 59 | 1015.0 |
| 20260505171003 | 15 | 316 | 4.8 | 12.9 | 0.00 | 0.00 | 0.00 | 58 | 1015.0 |
| 20260505170503 | 15 | 312 | 4.8 | 12.9 | 0.00 | 0.00 | 0.00 | 58 | 1015.0 |
| 20260505170003 | 15 | 301 | 4.8 | 11.3 | 0.00 | 0.00 | 0.00 | 59 | 1015.0 |
| 20260505165504 | 15 | 283 | 6.4 | 12.9 | 0.00 | 0.00 | 0.00 | 60 | 1015.0 |
| 20260505165003 | 15 | 287 | 4.8 | 12.9 | 0.00 | 0.00 | 0.00 | 62 | 1015.0 |
| 20260505164503 | 14 | 301 | 4.8 | 12.9 | 0.00 | 0.00 | 0.00 | 62 | 1015.1 |
| 20260505164003 | 14 | 295 | 4.8 | 12.9 | 0.00 | 0.00 | 0.00 | 64 | 1015.1 |
| 20260505163503 | 13 | 298 | 4.8 | 12.9 | 0.00 | 0.00 | 0.00 | 65 | 1015.0 |
| 20260505163003 | 13 | 294 | 4.8 | 9.7 | 0.00 | 0.00 | 0.00 | 68 | 1015.0 |
| 20260505162503 | 13 | 288 | 4.8 | 9.7 | 0.00 | 0.00 | 0.00 | 70 | 1015.1 |
| 20260505162004 | 12 | 284 | 4.8 | 12.9 | 0.00 | 0.00 | 0.00 | 73 | 1015.0 |
| 20260505161503 | 12 | 288 | 6.4 | 12.9 | 0.00 | 0.00 | 0.00 | 74 | 1015.1 |
| 20260505161003 | 12 | 293 | 6.4 | 14.5 | 0.00 | 0.00 | 0.00 | 74 | 1015.1 |
| 20260505160504 | 12 | 281 | 4.8 | 14.5 | 0.00 | 0.00 | 0.00 | 75 | 1015.1 |
| 20260505153003 | 10 | 276 | 3.2 | 6.4 | 0.00 | 0.00 | 0.00 | 82 | 1015.1 |
| 20260505152716 | 10 | 275 | 3.2 | 6.4 | 0.00 | 0.00 | 0.00 | 82 | 1015.0 |
| 20260505152003 | 9 | 266 | 4.8 | 11.3 | 0.00 | 0.00 | 0.00 | 84 | 1015.0 |
| 20260505151718 | 8 | 263 | 4.8 | 11.3 | 0.00 | 0.00 | 0.00 | 84 | 1014.9 |
| 20260505151003 | 8 | 265 | 3.2 | 11.3 | 0.00 | 0.00 | 0.00 | 85 | 1015.0 |
| 20260505150503 | 8 | 266 | 3.2 | 9.7 | 0.00 | 0.00 | 0.00 | 87 | 1015.0 |
| 20260505125003 | 5 | 107 | 0.0 | 3.2 | 0.00 | 0.00 | 0.00 | 85 | 1014.0 |
| 20260505124503 | 5 | 117 | 0.0 | 3.2 | 0.00 | 0.00 | 0.00 | 85 | 1014.0 |
| 20260505124220 | 5 | 108 | 1.6 | 3.2 | 0.00 | 0.00 | 0.00 | 85 | 1014.0 |
| 20260505123503 | 5 | 87 | 0.0 | 3.2 | 0.00 | 0.00 | 0.00 | 85 | 1014.0 |
| 20260505123003 | 5 | 0 | 0.0 | 0.0 | 0.00 | 0.00 | 0.00 | 84 | 1014.0 |
| 20260505122504 | 5 | 45 | 0.0 | 3.2 | 0.00 | 0.00 | 0.00 | 84 | 1014.0 |
| 20260505122220 | 5 | 45 | 0.0 | 3.2 | 0.00 | 0.00 | 0.00 | 83 | 1013.9 |
| 20260505121503 | 5 | 50 | 1.6 | 6.4 | 0.00 | 0.00 | 0.00 | 83 | 1013.8 |
| 20260505121217 | 5 | 53 | 3.2 | 6.4 | 0.00 | 0.00 | 0.00 | 82 | 1013.8 |
| 20260505120503 | 5 | 61 | 3.2 | 4.8 | 0.00 | 0.00 | 0.00 | 82 | 1013.7 |
| 20260505120004 | 6 | 67 | 1.6 | 6.4 | 0.00 | 0.00 | 0.00 | 82 | 1013.7 |
| 20260505115503 | 6 | 84 | 1.6 | 6.4 | 0.00 | 0.00 | 0.00 | 82 | 1013.7 |
| 20260505115003 | 6 | 186 | 1.6 | 4.8 | 0.00 | 0.00 | 0.00 | 82 | 1013.6 |
| 20260505114503 | 6 | 182 | 1.6 | 4.8 | 0.00 | 0.00 | 0.00 | 82 | 1013.6 |
| 20260505114003 | 6 | 173 | 1.6 | 4.8 | 0.00 | 0.00 | 0.00 | 82 | 1013.7 |
| 20260505113503 | 6 | 173 | 1.6 | 3.2 | 0.00 | 0.00 | 0.00 | 82 | 1013.6 |
| 20260505113217 | 6 | 170 | 1.6 | 6.4 | 0.00 | 0.00 | 0.00 | 82 | 1013.7 |
| 20260505112503 | 6 | 160 | 1.6 | 6.4 | 0.00 | 0.00 | 0.00 | 82 | 1013.6 |
| 20260505112003 | 6 | 132 | 1.6 | 4.8 | 0.00 | 0.00 | 0.00 | 81 | 1013.7 |
| 20260505111503 | 6 | 127 | 1.6 | 4.8 | 0.00 | 0.00 | 0.00 | 81 | 1013.6 |
| 20260505111003 | 7 | 135 | 1.6 | 4.8 | 0.00 | 0.00 | 0.00 | 81 | 1013.5 |
| 20260505110503 | 7 | 127 | 1.6 | 4.8 | 0.00 | 0.00 | 0.00 | 80 | 1013.4 |
| 20260505102003 | 10 | 151 | 6.4 | 16.1 | 0.00 | 0.00 | 0.00 | 67 | 1013.1 |
| 20260505101503 | 11 | 149 | 6.4 | 16.1 | 0.00 | 0.00 | 0.00 | 64 | 1013.0 |
| 20260505101003 | 11 | 157 | 3.2 | 8.0 | 0.00 | 0.00 | 0.00 | 61 | 1013.0 |
| 20260505100503 | 12 | 214 | 1.6 | 6.4 | 0.00 | 0.00 | 0.00 | 58 | 1012.7 |
| 20260505100219 | 12 | 260 | 1.6 | 6.4 | 0.00 | 0.00 | 0.00 | 57 | 1012.8 |
| 20260505095503 | 13 | 270 | 3.2 | 6.4 | 0.00 | 0.00 | 0.00 | 55 | 1012.6 |
| 20260505095003 | 13 | 310 | 4.8 | 12.9 | 0.00 | 0.00 | 0.00 | 53 | 1012.6 |
| 20260505094503 | 14 | 340 | 6.4 | 14.5 | 0.00 | 0.00 | 0.00 | 47 | 1012.4 |
| 20260505094004 | 14 | 345 | 8.0 | 14.5 | 0.00 | 0.00 | 0.00 | 46 | 1012.4 |
| 20260505093503 | 14 | 335 | 9.7 | 25.7 | 0.00 | 0.00 | 0.00 | 45 | 1012.4 |
| 20260505093003 | 14 | 333 | 9.7 | 25.7 | 0.00 | 0.00 | 0.00 | 45 | 1012.4 |
| 20260505092503 | 14 | 336 | 11.3 | 27.4 | 0.00 | 0.00 | 0.00 | 45 | 1012.5 |
| 20260505092003 | 14 | 334 | 12.9 | 27.4 | 0.00 | 0.00 | 0.00 | 44 | 1012.3 |
| 20260505091504 | 14 | 337 | 14.5 | 30.6 | 0.00 | 0.00 | 0.00 | 45 | 1012.4 |
| 20260505091003 | 14 | 335 | 14.5 | 30.6 | 0.00 | 0.00 | 0.00 | 44 | 1012.4 |
| 20260505090504 | 15 | 319 | 14.5 | 27.4 | 0.00 | 0.00 | 0.00 | 44 | 1012.4 |
| 20260505090003 | 15 | 315 | 12.9 | 27.4 | 0.00 | 0.00 | 0.00 | 44 | 1012.4 |
| 20260505085503 | 14 | 311 | 11.3 | 22.5 | 0.00 | 0.00 | 0.00 | 44 | 1012.5 |
| 20260505085003 | 15 | 297 | 11.3 | 25.7 | 0.00 | 0.00 | 0.00 | 44 | 1012.5 |
| 20260505084503 | 14 | 295 | 12.9 | 25.7 | 0.00 | 0.00 | 0.00 | 44 | 1012.5 |
| 20260505084003 | 14 | 295 | 11.3 | 25.7 | 0.00 | 0.00 | 0.00 | 45 | 1012.5 |
| 20260505083504 | 14 | 294 | 8.0 | 25.7 | 0.00 | 0.00 | 0.00 | 45 | 1012.5 |
| 20260505083216 | 14 | 297 | 8.0 | 22.5 | 0.00 | 0.00 | 0.00 | 45 | 1012.5 |
| 20260505082503 | 14 | 289 | 8.0 | 20.9 | 0.00 | 0.00 | 0.00 | 45 | 1012.5 |
| 20260505082003 | 13 | 282 | 6.4 | 19.3 | 0.00 | 0.00 | 0.00 | 46 | 1012.5 |
| 20260505081719 | 13 | 277 | 6.4 | 17.7 | 0.00 | 0.00 | 0.00 | 46 | 1012.5 |
| 20260505081003 | 13 | 269 | 6.4 | 12.9 | 0.00 | 0.00 | 0.00 | 47 | 1012.4 |
| 20260505080503 | 13 | 275 | 4.8 | 11.3 | 0.00 | 0.00 | 0.00 | 47 | 1012.4 |
| 20260505080003 | 13 | 278 | 4.8 | 16.1 | 0.00 | 0.00 | 0.00 | 47 | 1012.4 |
| 20260505075503 | 13 | 280 | 4.8 | 16.1 | 0.00 | 0.00 | 0.00 | 48 | 1012.4 |
| 20260505075003 | 13 | 281 | 6.4 | 16.1 | 0.00 | 0.00 | 0.00 | 47 | 1012.3 |
| 20260505074504 | 13 | 281 | 8.0 | 16.1 | 0.00 | 0.00 | 0.00 | 47 | 1012.4 |
| 20260505074003 | 13 | 280 | 6.4 | 16.1 | 0.00 | 0.00 | 0.00 | 47 | 1012.3 |
| 20260505073503 | 13 | 287 | 6.4 | 14.5 | 0.00 | 0.00 | 0.00 | 47 | 1012.4 |
| 20260505073003 | 14 | 289 | 8.0 | 14.5 | 0.00 | 0.00 | 0.00 | 47 | 1012.3 |
| 20260505072504 | 14 | 297 | 9.7 | 19.3 | 0.00 | 0.00 | 0.00 | 47 | 1012.3 |
| 20260505072003 | 14 | 304 | 11.3 | 19.3 | 0.00 | 0.00 | 0.00 | 46 | 1012.2 |
| 20260505071503 | 15 | 307 | 11.3 | 20.9 | 0.00 | 0.00 | 0.00 | 46 | 1012.2 |
| 20260505071004 | 15 | 315 | 11.3 | 24.1 | 0.00 | 0.00 | 0.00 | 45 | 1012.1 |
| 20260505070503 | 15 | 321 | 12.9 | 27.4 | 0.00 | 0.00 | 0.00 | 45 | 1012.0 |
| 20260505070218 | 15 | 320 | 14.5 | 29.0 | 0.00 | 0.00 | 0.00 | 44 | 1011.9 |
| 20260505065719 | 15 | 318 | 12.9 | 29.0 | 0.00 | 0.00 | 0.00 | 44 | 1011.9 |
| 20260505065003 | 15 | 330 | 14.5 | 24.1 | 0.00 | 0.00 | 0.00 | 44 | 1011.7 |
| 20260505064503 | 15 | 334 | 16.1 | 29.0 | 0.00 | 0.00 | 0.00 | 44 | 1011.6 |
| 20260505064004 | 15 | 334 | 17.7 | 32.2 | 0.00 | 0.00 | 0.00 | 44 | 1011.6 |
| 20260505063503 | 15 | 333 | 17.7 | 32.2 | 0.00 | 0.00 | 0.00 | 43 | 1011.5 |
| 20260505063219 | 16 | 336 | 16.1 | 30.6 | 0.00 | 0.00 | 0.00 | 44 | 1011.4 |
| 20260505062716 | 16 | 340 | 14.5 | 32.2 | 0.00 | 0.00 | 0.00 | 43 | 1011.5 |
| 20260505062003 | 16 | 344 | 16.1 | 33.8 | 0.00 | 0.00 | 0.00 | 44 | 1011.4 |
| 20260505061503 | 16 | 342 | 16.1 | 33.8 | 0.00 | 0.00 | 0.00 | 44 | 1011.3 |
| 20260505061004 | 16 | 342 | 16.1 | 29.0 | 0.00 | 0.00 | 0.00 | 45 | 1011.3 |
| 20260505060503 | 16 | 345 | 14.5 | 29.0 | 0.00 | 0.00 | 0.00 | 45 | 1011.4 |
| 20260505060003 | 16 | 345 | 11.3 | 25.7 | 0.00 | 0.00 | 0.00 | 46 | 1011.4 |
| 20260505055503 | 16 | 349 | 9.7 | 24.1 | 0.00 | 0.00 | 0.00 | 46 | 1011.3 |
| 20260505055219 | 16 | 351 | 9.7 | 24.1 | 0.00 | 0.00 | 0.00 | 46 | 1011.3 |
| 20260505054504 | 16 | 351 | 8.0 | 20.9 | 0.00 | 0.00 | 0.00 | 47 | 1011.3 |
| 20260505054003 | 16 | 354 | 8.0 | 17.7 | 0.00 | 0.00 | 0.00 | 48 | 1011.2 |
| 20260505053503 | 16 | 355 | 8.0 | 17.7 | 0.00 | 0.00 | 0.00 | 49 | 1011.3 |
| 20260505053003 | 16 | 353 | 9.7 | 19.3 | 0.00 | 0.00 | 0.00 | 49 | 1011.1 |
| 20260505052503 | 16 | 354 | 9.7 | 20.9 | 0.00 | 0.00 | 0.00 | 51 | 1011.2 |
| 20260505052003 | 16 | 354 | 9.7 | 24.1 | 0.00 | 0.00 | 0.00 | 52 | 1011.2 |
| 20260505051503 | 16 | 354 | 11.3 | 24.1 | 0.00 | 0.00 | 0.00 | 54 | 1011.2 |
| 20260505051003 | 16 | 356 | 11.3 | 19.3 | 0.00 | 0.00 | 0.00 | 56 | 1011.2 |
| 20260505050504 | 16 | 358 | 9.7 | 19.3 | 0.00 | 0.00 | 0.00 | 57 | 1011.2 |
| 20260505050217 | 16 | 358 | 8.0 | 16.1 | 0.00 | 0.00 | 0.00 | 57 | 1011.3 |
| 20260505041718 | 17 | 336 | 12.9 | 22.5 | 0.00 | 0.00 | 0.00 | 54 | 1010.8 |
| 20260505041003 | 17 | 341 | 11.3 | 22.5 | 0.00 | 0.00 | 0.00 | 53 | 1010.7 |
| 20260505040504 | 17 | 344 | 11.3 | 20.9 | 0.00 | 0.00 | 0.00 | 52 | 1010.6 |
| 20260505040004 | 17 | 345 | 9.7 | 22.5 | 0.00 | 0.00 | 0.00 | 51 | 1010.5 |
| 20260505035503 | 17 | 345 | 9.7 | 22.5 | 0.00 | 0.00 | 0.00 | 50 | 1010.4 |
| 20260505035003 | 18 | 346 | 9.7 | 20.9 | 0.00 | 0.00 | 0.00 | 49 | 1010.3 |
| 20260505034503 | 18 | 349 | 9.7 | 22.5 | 0.00 | 0.00 | 0.00 | 47 | 1010.3 |
| 20260505034217 | 18 | 349 | 9.7 | 22.5 | 0.00 | 0.00 | 0.00 | 47 | 1010.2 |
| 20260505033503 | 18 | 348 | 11.3 | 24.1 | 0.00 | 0.00 | 0.00 | 46 | 1010.1 |
| 20260505033218 | 18 | 349 | 12.9 | 24.1 | 0.00 | 0.00 | 0.00 | 46 | 1010.1 |
| 20260505032503 | 18 | 345 | 12.9 | 32.2 | 0.00 | 0.00 | 0.00 | 46 | 1009.9 |
| 20260505032003 | 18 | 342 | 17.7 | 32.2 | 0.00 | 0.00 | 0.00 | 46 | 1009.8 |
| 20260505031503 | 18 | 341 | 17.7 | 32.2 | 0.00 | 0.00 | 0.00 | 47 | 1009.6 |
| 20260505031003 | 17 | 343 | 17.7 | 30.6 | 0.00 | 0.00 | 0.00 | 48 | 1009.5 |
| 20260505030503 | 17 | 341 | 14.5 | 30.6 | 0.00 | 0.00 | 0.00 | 50 | 1009.4 |
| 20260505030004 | 17 | 339 | 11.3 | 25.7 | 0.00 | 0.00 | 0.00 | 52 | 1009.4 |